createdAt,value
2022-12-01T00:00:55.453Z,73.42
2022-12-01T00:04:58.458Z,73.45
2022-12-01T00:09:20.624Z,73.20
2022-12-01T00:13:23.681Z,73.22
2022-12-01T00:17:26.665Z,73.22
2022-12-01T00:21:29.924Z,73.06
2022-12-01T00:25:34.546Z,73.43
2022-12-01T00:29:37.470Z,73.19
2022-12-01T00:33:41.137Z,72.91
2022-12-01T00:37:44.761Z,73.07
2022-12-01T00:41:49.150Z,73.19
2022-12-01T00:45:52.428Z,73.33
2022-12-01T00:49:57.152Z,73.46
2022-12-01T00:54:00.256Z,73.50
2022-12-01T00:58:04.769Z,73.54
2022-12-01T01:02:09.403Z,73.70
2022-12-01T01:06:14.065Z,73.67
2022-12-01T01:10:17.164Z,73.84
2022-12-01T01:14:22.558Z,74.01
2022-12-01T01:18:25.884Z,74.26
2022-12-01T01:22:28.929Z,74.37
2022-12-01T01:26:33.185Z,74.30
2022-12-01T01:30:40.430Z,74.34
2022-12-01T01:34:43.737Z,74.83
2022-12-01T01:38:47.701Z,74.81
2022-12-01T01:42:51.005Z,74.54
2022-12-01T01:46:55.495Z,74.72
2022-12-01T01:50:58.866Z,74.50
2022-12-01T01:55:02.093Z,74.38
2022-12-01T01:59:05.539Z,74.46
2022-12-01T02:03:13.234Z,74.61
2022-12-01T02:07:19.412Z,74.53
2022-12-01T02:11:49.543Z,74.72
2022-12-01T02:16:03.718Z,74.63
2022-12-01T02:20:37.601Z,74.21
2022-12-01T02:25:09.681Z,74.04
2022-12-01T02:29:44.134Z,74.08
2022-12-01T02:33:54.455Z,74.11
2022-12-01T02:38:09.089Z,74.27
2022-12-01T02:42:38.908Z,74.47
2022-12-01T02:46:46.975Z,74.93
2022-12-01T02:50:53.339Z,74.79
2022-12-01T02:54:57.948Z,74.96
2022-12-01T02:59:01.219Z,74.78
2022-12-01T03:03:25.271Z,74.66
2022-12-01T03:07:44.789Z,74.60
2022-12-01T03:11:54.714Z,74.81
2022-12-01T03:16:02.211Z,74.40
2022-12-01T03:20:11.844Z,74.84
2022-12-01T03:24:18.419Z,74.19
2022-12-01T03:28:29.656Z,74.56
2022-12-01T03:32:36.500Z,74.64
2022-12-01T03:36:43.381Z,74.90
2022-12-01T03:40:50.948Z,75.13
2022-12-01T03:44:57.698Z,75.14
2022-12-01T03:49:00.701Z,75.22
2022-12-01T03:53:11.285Z,75.16
2022-12-01T03:57:22.827Z,74.92
2022-12-01T04:01:27.933Z,75.38
2022-12-01T04:05:32.387Z,75.37
2022-12-01T04:09:35.346Z,75.56
2022-12-01T04:13:40.030Z,75.46
2022-12-01T04:17:44.588Z,75.68
2022-12-01T04:21:47.621Z,75.79
2022-12-01T04:25:50.625Z,75.64
2022-12-01T04:29:55.026Z,76.08
2022-12-01T04:33:58.788Z,75.88
2022-12-01T04:38:02.245Z,75.76
2022-12-01T04:42:06.012Z,75.61
2022-12-01T04:46:10.461Z,75.92
2022-12-01T04:50:13.563Z,76.17
2022-12-01T04:54:16.899Z,76.04
2022-12-01T04:58:20.101Z,76.35
2022-12-01T05:02:24.485Z,76.27
2022-12-01T05:06:29.692Z,76.43
2022-12-01T05:10:32.703Z,76.30
2022-12-01T05:14:35.767Z,76.58
2022-12-01T05:18:41.733Z,76.54
2022-12-01T05:23:04.903Z,76.57
2022-12-01T05:27:07.819Z,76.67
2022-12-01T05:31:10.837Z,76.57
2022-12-01T05:35:15.344Z,76.77
2022-12-01T05:39:18.397Z,76.86
2022-12-01T05:43:28.335Z,76.89
2022-12-01T05:47:32.138Z,76.55
2022-12-01T05:51:36.448Z,76.59
2022-12-01T05:55:39.497Z,76.62
2022-12-01T05:59:42.494Z,76.42
2022-12-01T06:03:45.415Z,76.47
2022-12-01T06:07:50.327Z,76.62
2022-12-01T06:11:53.290Z,76.74
2022-12-01T06:16:00.717Z,76.51
2022-12-01T06:20:03.658Z,76.08
2022-12-01T06:24:08.817Z,76.05
2022-12-01T06:28:11.713Z,76.16
2022-12-01T06:32:14.686Z,75.96
2022-12-01T06:36:17.642Z,76.06
2022-12-01T06:40:22.484Z,75.79
2022-12-01T06:44:25.433Z,75.62
2022-12-01T06:48:28.287Z,75.82
2022-12-01T06:52:31.175Z,76.12
2022-12-01T06:56:35.467Z,76.09
2022-12-01T07:00:38.503Z,76.11
2022-12-01T07:04:41.431Z,76.01
2022-12-01T07:08:45.110Z,76.22
2022-12-01T07:12:49.477Z,76.04
2022-12-01T07:16:52.569Z,76.64
2022-12-01T07:20:55.581Z,76.51
2022-12-01T07:24:58.501Z,76.74
2022-12-01T07:29:02.748Z,76.96
2022-12-01T07:33:05.764Z,76.45
2022-12-01T07:37:08.692Z,76.57
2022-12-01T07:41:13.285Z,76.54
2022-12-01T07:45:17.690Z,76.47
2022-12-01T07:49:20.848Z,76.37
2022-12-01T07:53:25.104Z,76.58
2022-12-01T07:57:27.980Z,76.31
2022-12-01T08:01:32.899Z,76.19
2022-12-01T08:05:36.051Z,77.64
2022-12-01T08:09:39.012Z,76.77
2022-12-01T08:13:43.360Z,75.43
2022-12-01T08:17:47.820Z,75.40
2022-12-01T08:21:50.701Z,75.73
2022-12-01T08:25:54.024Z,75.95
2022-12-01T08:29:57.390Z,75.53
2022-12-01T08:34:01.644Z,75.85
2022-12-01T08:38:05.296Z,76.14
2022-12-01T08:42:08.171Z,75.93
2022-12-01T08:46:11.825Z,75.24
2022-12-01T08:50:16.263Z,74.74
2022-12-01T08:54:19.436Z,75.26
2022-12-01T08:58:22.342Z,75.15
2022-12-01T09:02:25.631Z,75.15
2022-12-01T09:06:30.000Z,74.64
2022-12-01T09:10:32.891Z,74.40
2022-12-01T09:14:38.079Z,74.16
2022-12-01T09:18:41.642Z,74.11
2022-12-01T09:22:46.085Z,74.61
2022-12-01T09:26:49.000Z,74.73
2022-12-01T09:30:51.910Z,74.48
2022-12-01T09:34:54.815Z,74.54
2022-12-01T09:38:59.371Z,74.38
2022-12-01T09:43:05.614Z,73.08
2022-12-01T09:47:18.864Z,73.02
2022-12-01T09:51:24.254Z,73.16
2022-12-01T09:55:31.321Z,73.25
2022-12-01T09:59:39.623Z,73.53
2022-12-01T10:03:48.366Z,73.39
2022-12-01T10:07:56.455Z,73.48
2022-12-01T10:12:07.864Z,73.67
2022-12-01T10:16:13.560Z,73.77
2022-12-01T10:20:21.689Z,73.74
2022-12-01T10:24:34.987Z,73.87
2022-12-01T10:29:03.660Z,73.66
2022-12-01T10:33:20.945Z,73.45
2022-12-01T10:37:27.349Z,73.70
2022-12-01T10:41:34.874Z,73.70
2022-12-01T10:45:45.772Z,73.72
2022-12-01T10:49:49.707Z,73.52
2022-12-01T10:53:59.581Z,73.56
2022-12-01T10:58:13.195Z,73.17
2022-12-01T11:02:21.419Z,73.03
2022-12-01T11:06:27.803Z,73.52
2022-12-01T11:10:32.831Z,74.16
2022-12-01T11:14:44.888Z,74.45
2022-12-01T11:18:49.160Z,73.14
2022-12-01T11:22:52.323Z,72.39
2022-12-01T11:26:58.212Z,72.24
2022-12-01T11:31:04.143Z,71.37
2022-12-01T11:35:18.784Z,71.88
2022-12-01T11:39:26.802Z,72.08
2022-12-01T11:43:31.808Z,71.99
2022-12-01T11:47:34.928Z,72.10
2022-12-01T11:51:39.236Z,72.44
2022-12-01T11:55:42.117Z,72.66
2022-12-01T11:59:45.084Z,72.66
2022-12-01T12:03:57.473Z,72.26
2022-12-01T12:08:16.125Z,72.50
2022-12-01T12:12:30.899Z,72.50
2022-12-01T12:16:45.432Z,72.33
2022-12-01T12:21:03.443Z,72.06
2022-12-01T12:25:23.934Z,72.00
2022-12-01T12:29:41.721Z,71.96
2022-12-01T12:34:08.068Z,71.80
2022-12-01T12:38:23.805Z,71.59
2022-12-01T12:42:35.689Z,71.68
2022-12-01T12:46:48.861Z,71.67
2022-12-01T12:51:02.895Z,71.90
2022-12-01T12:55:15.369Z,72.21
2022-12-01T12:59:26.094Z,72.37
2022-12-01T13:03:39.894Z,72.18
2022-12-01T13:07:47.492Z,71.89
2022-12-01T13:11:54.533Z,72.40
2022-12-01T13:16:02.328Z,72.49
2022-12-01T13:20:06.675Z,72.33
2022-12-01T13:24:16.237Z,72.12
2022-12-01T13:28:24.391Z,72.22
2022-12-01T13:32:34.099Z,72.54
2022-12-01T13:36:52.223Z,72.30
2022-12-01T13:41:13.148Z,72.34
2022-12-01T13:45:20.272Z,72.31
2022-12-01T13:49:39.689Z,72.93
2022-12-01T13:53:58.239Z,73.62
2022-12-01T13:58:26.421Z,72.80
2022-12-01T14:02:31.741Z,72.26
2022-12-01T14:06:46.432Z,71.90
2022-12-01T14:10:55.551Z,72.37
2022-12-01T14:15:01.631Z,72.52
2022-12-01T14:19:04.555Z,72.06
2022-12-01T14:23:21.356Z,72.30
2022-12-01T14:27:38.384Z,72.55
2022-12-01T14:32:05.216Z,72.54
2022-12-01T14:36:11.195Z,72.55
2022-12-01T14:40:24.679Z,72.39
2022-12-01T14:44:32.406Z,72.40
2022-12-01T14:48:41.939Z,72.53
2022-12-01T14:52:48.193Z,72.83
2022-12-01T14:56:55.481Z,72.96
2022-12-01T15:01:04.931Z,72.89
2022-12-01T15:05:10.919Z,72.80
2022-12-01T15:13:49.154Z,73.41
2022-12-01T15:17:55.459Z,73.35
2022-12-01T15:21:58.818Z,73.33
2022-12-01T15:26:01.855Z,73.07
2022-12-01T15:30:07.922Z,73.01
2022-12-01T15:34:16.537Z,73.54
2022-12-01T15:38:23.006Z,73.53
2022-12-01T15:42:29.252Z,73.72
2022-12-01T15:46:35.370Z,73.59
2022-12-01T15:50:46.258Z,73.22
2022-12-01T15:54:51.172Z,73.63
2022-12-01T15:58:58.680Z,73.32
2022-12-01T16:03:03.506Z,73.55
2022-12-01T16:07:09.525Z,73.77
2022-12-01T16:11:16.158Z,73.74
2022-12-01T16:15:22.796Z,73.61
2022-12-01T16:19:30.184Z,73.72
2022-12-01T16:23:34.339Z,73.24
2022-12-01T16:27:52.126Z,73.49
2022-12-01T16:32:19.196Z,73.23
2022-12-01T16:36:26.587Z,73.78
2022-12-01T16:40:29.977Z,73.60
2022-12-01T16:44:32.907Z,73.50
2022-12-01T16:48:37.784Z,73.76
2022-12-01T16:52:44.976Z,73.66
2022-12-01T16:56:49.611Z,73.86
2022-12-01T17:00:53.469Z,73.50
2022-12-01T17:04:56.550Z,73.70
2022-12-01T17:09:00.884Z,73.71
2022-12-01T17:13:03.964Z,73.93
2022-12-01T17:17:06.920Z,74.02
2022-12-01T17:21:11.604Z,73.94
2022-12-01T17:25:16.125Z,73.84
2022-12-01T17:29:18.999Z,73.84
2022-12-01T17:33:21.963Z,74.16
2022-12-01T17:37:27.680Z,73.90
2022-12-01T17:41:35.711Z,73.92
2022-12-01T17:45:42.016Z,73.77
2022-12-01T17:49:45.276Z,74.17
2022-12-01T17:53:48.471Z,73.98
2022-12-01T17:57:52.833Z,74.12
2022-12-01T18:01:55.829Z,74.32
2022-12-01T18:05:59.472Z,74.29
2022-12-01T18:10:02.640Z,74.59
2022-12-01T18:14:07.049Z,74.86
2022-12-01T18:18:10.034Z,74.41
2022-12-01T18:22:13.087Z,74.28
2022-12-01T18:26:16.543Z,74.25
2022-12-01T18:30:21.134Z,74.19
2022-12-01T18:34:24.329Z,74.39
2022-12-01T18:38:28.225Z,74.41
2022-12-01T18:42:31.406Z,74.71
2022-12-01T18:46:36.084Z,74.77
2022-12-01T18:50:39.113Z,74.75
2022-12-01T18:54:42.196Z,74.45
2022-12-01T18:58:45.220Z,74.53
2022-12-01T19:02:49.559Z,74.83
2022-12-01T19:06:52.686Z,74.85
2022-12-01T19:11:00.415Z,74.89
2022-12-01T19:15:03.798Z,75.00
2022-12-01T19:19:08.255Z,75.06
2022-12-01T19:23:11.188Z,75.03
2022-12-01T19:27:14.211Z,75.04
2022-12-01T19:31:19.928Z,74.99
2022-12-01T19:35:24.366Z,75.37
2022-12-01T19:39:27.397Z,75.50
2022-12-01T19:43:30.510Z,75.46
2022-12-01T19:47:33.985Z,75.40
2022-12-01T19:51:39.873Z,75.65
2022-12-01T19:55:42.924Z,75.87
2022-12-01T19:59:46.085Z,76.04
2022-12-01T20:03:51.000Z,75.95
2022-12-01T20:07:55.473Z,75.92
2022-12-01T20:11:58.681Z,76.04
2022-12-01T20:16:06.619Z,75.76
2022-12-01T20:20:11.041Z,75.84
2022-12-01T20:24:18.543Z,76.01
2022-12-01T20:28:21.502Z,75.99
2022-12-01T20:32:24.697Z,76.15
2022-12-01T20:36:28.715Z,76.42
2022-12-01T20:40:33.091Z,75.99
2022-12-01T20:44:36.139Z,76.11
2022-12-01T20:48:39.223Z,76.31
2022-12-01T20:52:42.652Z,75.96
2022-12-01T20:56:47.093Z,76.23
2022-12-01T21:00:50.331Z,75.76
2022-12-01T21:04:57.710Z,76.21
2022-12-01T21:09:03.346Z,75.98
2022-12-01T21:13:38.811Z,76.01
2022-12-01T21:17:47.544Z,76.34
2022-12-01T21:21:51.642Z,76.59
2022-12-01T21:25:54.736Z,76.28
2022-12-01T21:29:59.112Z,76.88
2022-12-01T21:34:02.870Z,76.45
2022-12-01T21:38:11.960Z,76.50
2022-12-01T21:42:18.515Z,76.62
2022-12-01T21:46:23.198Z,76.56
2022-12-01T21:50:27.274Z,76.85
2022-12-01T21:54:30.878Z,76.99
2022-12-01T21:58:37.665Z,76.72
2022-12-01T22:02:53.304Z,76.43
2022-12-01T22:06:58.348Z,76.41
2022-12-01T22:11:04.877Z,76.44
2022-12-01T22:15:26.128Z,76.46
2022-12-01T22:19:33.598Z,76.38
2022-12-01T22:23:36.609Z,76.42
2022-12-01T22:27:40.677Z,76.36
2022-12-01T22:31:43.686Z,76.57
2022-12-01T22:35:49.363Z,76.74
2022-12-01T22:39:55.143Z,76.80
2022-12-01T22:44:00.597Z,76.73
2022-12-01T22:48:03.731Z,76.89
2022-12-01T22:52:17.106Z,76.69
2022-12-01T22:56:30.405Z,77.07
2022-12-01T23:00:34.168Z,76.78
2022-12-01T23:04:41.727Z,76.84
2022-12-01T23:08:46.738Z,76.72
2022-12-01T23:12:51.552Z,76.86
2022-12-01T23:17:05.427Z,77.09
2022-12-01T23:21:08.424Z,77.00
2022-12-01T23:25:15.167Z,77.05
2022-12-01T23:29:18.155Z,77.22
2022-12-01T23:33:23.392Z,77.45
2022-12-01T23:37:34.354Z,77.05
2022-12-01T23:41:41.296Z,77.11
2022-12-01T23:45:44.956Z,77.17
2022-12-01T23:49:50.333Z,77.39
2022-12-01T23:53:54.578Z,77.74
2022-12-01T23:58:01.853Z,77.70
